Terminal Aerodrome Forecast
Issued by NWS Wilmington, OH

Current Version | Previous Version | Graphics & Text | Print | Product List | Glossary On
Versions: 1 2 3 4 5 6 7 8 9 10 11 12 13 14 15 16 17
000
FTUS41 KILN 190545 AAA
TAFCMH
TAF AMD
KCMH 190545Z 1906/2006 VRB03KT P6SM BKN110
     FM191400 13005KT P6SM VCTS BKN080CB
     FM191700 18005KT P6SM VCSH BKN070
     FM200000 VRB04KT P6SM BKN090=

USA.gov is the U.S. government's official web portal to all federal, state and local government web resources and services.